sensor_id;sensor_type;location;lat;lon;timestamp;P1;durP1;ratioP1;P2;durP2;ratioP2
28007;SDS011;15333;50.010;20.020;2023-08-06T00:02:02;98.00;;;51.00;;
28007;SDS011;15333;50.010;20.020;2023-08-06T00:05:03;108.75;;;54.35;;
28007;SDS011;15333;50.010;20.020;2023-08-06T00:08:04;132.23;;;60.75;;
28007;SDS011;15333;50.010;20.020;2023-08-06T00:11:04;148.32;;;64.38;;
28007;SDS011;15333;50.010;20.020;2023-08-06T00:14:06;150.10;;;66.10;;
28007;SDS011;15333;50.010;20.020;2023-08-06T00:17:06;152.88;;;66.97;;
28007;SDS011;15333;50.010;20.020;2023-08-06T00:20:07;159.13;;;70.32;;
28007;SDS011;15333;50.010;20.020;2023-08-06T00:23:08;173.75;;;80.53;;
28007;SDS011;15333;50.010;20.020;2023-08-06T00:26:09;184.73;;;84.00;;
28007;SDS011;15333;50.010;20.020;2023-08-06T00:29:10;249.18;;;92.72;;
28007;SDS011;15333;50.010;20.020;2023-08-06T00:32:11;226.57;;;89.32;;
28007;SDS011;15333;50.010;20.020;2023-08-06T00:35:13;227.77;;;86.55;;
28007;SDS011;15333;50.010;20.020;2023-08-06T00:38:14;308.60;;;90.20;;
28007;SDS011;15333;50.010;20.020;2023-08-06T00:41:15;248.85;;;85.30;;
28007;SDS011;15333;50.010;20.020;2023-08-06T00:44:16;455.30;;;96.13;;
28007;SDS011;15333;50.010;20.020;2023-08-06T00:47:17;252.57;;;79.00;;
28007;SDS011;15333;50.010;20.020;2023-08-06T00:50:19;248.32;;;82.50;;
28007;SDS011;15333;50.010;20.020;2023-08-06T00:53:21;324.85;;;83.50;;
28007;SDS011;15333;50.010;20.020;2023-08-06T00:56:22;345.08;;;90.85;;
28007;SDS011;15333;50.010;20.020;2023-08-06T00:59:24;344.70;;;99.35;;
28007;SDS011;15333;50.010;20.020;2023-08-06T01:02:26;235.98;;;87.38;;
28007;SDS011;15333;50.010;20.020;2023-08-06T01:05:26;416.48;;;98.03;;
28007;SDS011;15333;50.010;20.020;2023-08-06T01:14:57;387.10;;;91.60;;
28007;SDS011;15333;50.010;20.020;2023-08-06T01:18:07;247.35;;;78.82;;
28007;SDS011;15333;50.010;20.020;2023-08-06T01:21:08;189.27;;;68.97;;
28007;SDS011;15333;50.010;20.020;2023-08-06T01:24:09;212.98;;;69.10;;
28007;SDS011;15333;50.010;20.020;2023-08-06T01:27:30;180.88;;;62.50;;
28007;SDS011;15333;50.010;20.020;2023-08-06T01:30:39;173.57;;;62.63;;
28007;SDS011;15333;50.010;20.020;2023-08-06T01:33:43;206.60;;;62.72;;
28007;SDS011;15333;50.010;20.020;2023-08-06T01:36:45;214.05;;;62.85;;
28007;SDS011;15333;50.010;20.020;2023-08-06T01:39:47;229.07;;;63.70;;
28007;SDS011;15333;50.010;20.020;2023-08-06T01:42:47;158.25;;;59.90;;
28007;SDS011;15333;50.010;20.020;2023-08-06T01:45:48;158.05;;;57.88;;
28007;SDS011;15333;50.010;20.020;2023-08-06T01:48:49;135.85;;;57.05;;
28007;SDS011;15333;50.010;20.020;2023-08-06T01:51:50;106.20;;;50.15;;
28007;SDS011;15333;50.010;20.020;2023-08-06T01:54:51;127.97;;;53.85;;
28007;SDS011;15333;50.010;20.020;2023-08-06T01:57:52;97.78;;;48.63;;
28007;SDS011;15333;50.010;20.020;2023-08-06T02:00:53;117.45;;;52.47;;
28007;SDS011;15333;50.010;20.020;2023-08-06T02:03:54;149.38;;;54.53;;
28007;SDS011;15333;50.010;20.020;2023-08-06T02:06:54;94.85;;;47.35;;
28007;SDS011;15333;50.010;20.020;2023-08-06T02:09:56;113.70;;;50.80;;
28007;SDS011;15333;50.010;20.020;2023-08-06T02:12:57;94.15;;;46.25;;
28007;SDS011;15333;50.010;20.020;2023-08-06T02:15:58;98.68;;;47.70;;
28007;SDS011;15333;50.010;20.020;2023-08-06T02:18:59;101.30;;;47.00;;
28007;SDS011;15333;50.010;20.020;2023-08-06T02:22:00;80.07;;;43.47;;
28007;SDS011;15333;50.010;20.020;2023-08-06T02:25:03;92.28;;;45.95;;
28007;SDS011;15333;50.010;20.020;2023-08-06T02:28:04;102.80;;;47.72;;
28007;SDS011;15333;50.010;20.020;2023-08-06T02:31:05;90.20;;;45.50;;
28007;SDS011;15333;50.010;20.020;2023-08-06T02:34:07;97.43;;;46.17;;
28007;SDS011;15333;50.010;20.020;2023-08-06T02:37:08;100.78;;;44.00;;
28007;SDS011;15333;50.010;20.020;2023-08-06T02:40:09;113.47;;;49.72;;
28007;SDS011;15333;50.010;20.020;2023-08-06T02:43:10;98.43;;;48.00;;
28007;SDS011;15333;50.010;20.020;2023-08-06T02:46:11;98.43;;;49.05;;
28007;SDS011;15333;50.010;20.020;2023-08-06T02:49:12;116.00;;;51.15;;
28007;SDS011;15333;50.010;20.020;2023-08-06T02:52:13;106.97;;;49.50;;
28007;SDS011;15333;50.010;20.020;2023-08-06T02:55:14;125.15;;;53.33;;
28007;SDS011;15333;50.010;20.020;2023-08-06T02:58:19;125.00;;;54.05;;
28007;SDS011;15333;50.010;20.020;2023-08-06T03:01:31;138.57;;;53.95;;
28007;SDS011;15333;50.010;20.020;2023-08-06T03:04:39;111.45;;;51.50;;
28007;SDS011;15333;50.010;20.020;2023-08-06T03:07:40;117.85;;;50.75;;
28007;SDS011;15333;50.010;20.020;2023-08-06T03:10:49;113.50;;;50.33;;
28007;SDS011;15333;50.010;20.020;2023-08-06T03:13:51;127.45;;;52.15;;
28007;SDS011;15333;50.010;20.020;2023-08-06T03:16:52;124.88;;;53.90;;
28007;SDS011;15333;50.010;20.020;2023-08-06T03:19:54;110.15;;;49.78;;
28007;SDS011;15333;50.010;20.020;2023-08-06T03:22:55;118.82;;;51.35;;
28007;SDS011;15333;50.010;20.020;2023-08-06T03:26:00;107.90;;;49.05;;
28007;SDS011;15333;50.010;20.020;2023-08-06T03:29:03;105.90;;;50.00;;
28007;SDS011;15333;50.010;20.020;2023-08-06T03:32:07;114.28;;;50.88;;
28007;SDS011;15333;50.010;20.020;2023-08-06T03:35:08;105.68;;;51.78;;
28007;SDS011;15333;50.010;20.020;2023-08-06T03:38:09;94.85;;;44.60;;
28007;SDS011;15333;50.010;20.020;2023-08-06T03:41:10;72.63;;;42.08;;
28007;SDS011;15333;50.010;20.020;2023-08-06T03:44:12;73.03;;;40.42;;
28007;SDS011;15333;50.010;20.020;2023-08-06T03:47:13;73.70;;;40.13;;
28007;SDS011;15333;50.010;20.020;2023-08-06T03:50:14;66.53;;;38.05;;
28007;SDS011;15333;50.010;20.020;2023-08-06T03:53:15;60.50;;;37.28;;
28007;SDS011;15333;50.010;20.020;2023-08-06T03:56:17;62.33;;;35.08;;
28007;SDS011;15333;50.010;20.020;2023-08-06T03:59:18;57.45;;;36.15;;
28007;SDS011;15333;50.010;20.020;2023-08-06T04:02:21;61.90;;;36.13;;
28007;SDS011;15333;50.010;20.020;2023-08-06T04:05:22;59.50;;;35.45;;
28007;SDS011;15333;50.010;20.020;2023-08-06T04:08:23;66.63;;;37.00;;
28007;SDS011;15333;50.010;20.020;2023-08-06T04:11:24;66.93;;;37.72;;
28007;SDS011;15333;50.010;20.020;2023-08-06T04:14:28;56.92;;;33.75;;
28007;SDS011;15333;50.010;20.020;2023-08-06T04:17:32;58.95;;;35.05;;
28007;SDS011;15333;50.010;20.020;2023-08-06T04:20:33;67.32;;;36.97;;
28007;SDS011;15333;50.010;20.020;2023-08-06T04:23:34;62.17;;;35.70;;
28007;SDS011;15333;50.010;20.020;2023-08-06T04:26:38;69.18;;;36.20;;
28007;SDS011;15333;50.010;20.020;2023-08-06T04:29:39;64.82;;;35.65;;
28007;SDS011;15333;50.010;20.020;2023-08-06T04:32:41;53.88;;;32.88;;
28007;SDS011;15333;50.010;20.020;2023-08-06T04:35:43;65.53;;;36.13;;
28007;SDS011;15333;50.010;20.020;2023-08-06T04:38:43;58.72;;;32.92;;
28007;SDS011;15333;50.010;20.020;2023-08-06T04:41:49;63.45;;;34.35;;
28007;SDS011;15333;50.010;20.020;2023-08-06T04:44:50;69.10;;;33.80;;
28007;SDS011;15333;50.010;20.020;2023-08-06T04:47:52;75.32;;;35.75;;
28007;SDS011;15333;50.010;20.020;2023-08-06T04:50:52;63.20;;;33.45;;
28007;SDS011;15333;50.010;20.020;2023-08-06T04:53:53;73.30;;;31.70;;
28007;SDS011;15333;50.010;20.020;2023-08-06T04:56:54;79.90;;;31.85;;
28007;SDS011;15333;50.010;20.020;2023-08-06T04:59:55;61.78;;;29.45;;
28007;SDS011;15333;50.010;20.020;2023-08-06T05:02:56;60.58;;;29.23;;
28007;SDS011;15333;50.010;20.020;2023-08-06T05:05:57;57.33;;;27.77;;
28007;SDS011;15333;50.010;20.020;2023-08-06T05:08:57;72.43;;;30.38;;
28007;SDS011;15333;50.010;20.020;2023-08-06T05:12:03;61.03;;;28.95;;
28007;SDS011;15333;50.010;20.020;2023-08-06T05:15:05;51.25;;;26.83;;
28007;SDS011;15333;50.010;20.020;2023-08-06T05:18:06;47.90;;;27.13;;
28007;SDS011;15333;50.010;20.020;2023-08-06T05:21:07;59.20;;;30.52;;
28007;SDS011;15333;50.010;20.020;2023-08-06T05:24:08;51.58;;;28.58;;
28007;SDS011;15333;50.010;20.020;2023-08-06T05:27:09;71.45;;;34.28;;
28007;SDS011;15333;50.010;20.020;2023-08-06T05:30:10;51.50;;;27.17;;
28007;SDS011;15333;50.010;20.020;2023-08-06T05:33:11;47.72;;;26.85;;
28007;SDS011;15333;50.010;20.020;2023-08-06T05:36:12;53.47;;;27.20;;
28007;SDS011;15333;50.010;20.020;2023-08-06T05:39:13;60.60;;;28.33;;
28007;SDS011;15333;50.010;20.020;2023-08-06T05:42:14;52.50;;;28.60;;
28007;SDS011;15333;50.010;20.020;2023-08-06T05:45:14;93.45;;;35.42;;
28007;SDS011;15333;50.010;20.020;2023-08-06T05:48:16;77.50;;;35.17;;
28007;SDS011;15333;50.010;20.020;2023-08-06T05:51:16;89.20;;;39.08;;
28007;SDS011;15333;50.010;20.020;2023-08-06T05:54:17;75.28;;;35.38;;
28007;SDS011;15333;50.010;20.020;2023-08-06T05:57:18;98.50;;;39.25;;
28007;SDS011;15333;50.010;20.020;2023-08-06T06:00:20;77.57;;;35.35;;
28007;SDS011;15333;50.010;20.020;2023-08-06T06:03:21;68.63;;;32.72;;
28007;SDS011;15333;50.010;20.020;2023-08-06T06:06:22;74.35;;;33.00;;
28007;SDS011;15333;50.010;20.020;2023-08-06T06:09:23;67.38;;;31.45;;
28007;SDS011;15333;50.010;20.020;2023-08-06T06:12:24;72.13;;;32.88;;
28007;SDS011;15333;50.010;20.020;2023-08-06T06:15:26;80.20;;;37.05;;
28007;SDS011;15333;50.010;20.020;2023-08-06T06:18:27;82.82;;;38.60;;
28007;SDS011;15333;50.010;20.020;2023-08-06T06:21:28;57.83;;;30.65;;
28007;SDS011;15333;50.010;20.020;2023-08-06T06:24:29;62.38;;;30.60;;
28007;SDS011;15333;50.010;20.020;2023-08-06T06:27:31;96.72;;;41.92;;
28007;SDS011;15333;50.010;20.020;2023-08-06T06:30:32;89.03;;;40.42;;
28007;SDS011;15333;50.010;20.020;2023-08-06T06:33:33;79.03;;;40.55;;
28007;SDS011;15333;50.010;20.020;2023-08-06T06:36:34;74.75;;;38.15;;
28007;SDS011;15333;50.010;20.020;2023-08-06T06:39:34;72.45;;;38.38;;
28007;SDS011;15333;50.010;20.020;2023-08-06T06:42:35;62.15;;;33.47;;
28007;SDS011;15333;50.010;20.020;2023-08-06T06:45:39;63.42;;;32.60;;
28007;SDS011;15333;50.010;20.020;2023-08-06T06:48:40;52.50;;;29.88;;
28007;SDS011;15333;50.010;20.020;2023-08-06T06:51:41;52.63;;;28.73;;
28007;SDS011;15333;50.010;20.020;2023-08-06T06:54:42;49.70;;;27.95;;
28007;SDS011;15333;50.010;20.020;2023-08-06T06:57:42;44.15;;;27.05;;
28007;SDS011;15333;50.010;20.020;2023-08-06T07:00:43;51.63;;;28.73;;
28007;SDS011;15333;50.010;20.020;2023-08-06T07:03:44;42.70;;;26.23;;
28007;SDS011;15333;50.010;20.020;2023-08-06T07:06:45;42.15;;;26.83;;
28007;SDS011;15333;50.010;20.020;2023-08-06T07:09:46;42.92;;;26.98;;
28007;SDS011;15333;50.010;20.020;2023-08-06T07:12:47;51.05;;;27.70;;
28007;SDS011;15333;50.010;20.020;2023-08-06T07:15:48;77.80;;;49.15;;
28007;SDS011;15333;50.010;20.020;2023-08-06T07:18:49;54.42;;;29.77;;
28007;SDS011;15333;50.010;20.020;2023-08-06T07:21:51;57.65;;;29.90;;
28007;SDS011;15333;50.010;20.020;2023-08-06T07:24:52;66.35;;;31.80;;
28007;SDS011;15333;50.010;20.020;2023-08-06T07:27:53;74.38;;;33.97;;
28007;SDS011;15333;50.010;20.020;2023-08-06T07:30:54;63.45;;;32.25;;
28007;SDS011;15333;50.010;20.020;2023-08-06T07:33:55;64.03;;;31.00;;
28007;SDS011;15333;50.010;20.020;2023-08-06T07:36:56;98.45;;;63.92;;
28007;SDS011;15333;50.010;20.020;2023-08-06T07:39:56;57.17;;;30.60;;
28007;SDS011;15333;50.010;20.020;2023-08-06T07:42:58;52.65;;;28.48;;
28007;SDS011;15333;50.010;20.020;2023-08-06T07:45:59;49.35;;;27.23;;
28007;SDS011;15333;50.010;20.020;2023-08-06T07:49:01;42.00;;;25.88;;
28007;SDS011;15333;50.010;20.020;2023-08-06T07:52:01;11.02;;;7.03;;
28007;SDS011;15333;50.010;20.020;2023-08-06T07:55:03;3.42;;;2.92;;
28007;SDS011;15333;50.010;20.020;2023-08-06T07:58:05;2.90;;;1.63;;
28007;SDS011;15333;50.010;20.020;2023-08-06T08:01:06;1.73;;;1.38;;
28007;SDS011;15333;50.010;20.020;2023-08-06T08:04:07;2.80;;;1.50;;
28007;SDS011;15333;50.010;20.020;2023-08-06T08:07:09;3.88;;;1.23;;
28007;SDS011;15333;50.010;20.020;2023-08-06T08:10:11;3.80;;;1.30;;
28007;SDS011;15333;50.010;20.020;2023-08-06T08:13:12;2.20;;;1.30;;
28007;SDS011;15333;50.010;20.020;2023-08-06T08:16:13;2.33;;;1.08;;
28007;SDS011;15333;50.010;20.020;2023-08-06T08:19:14;1.98;;;1.10;;
28007;SDS011;15333;50.010;20.020;2023-08-06T08:22:15;2.10;;;0.80;;
28007;SDS011;15333;50.010;20.020;2023-08-06T08:25:16;1.23;;;0.70;;
28007;SDS011;15333;50.010;20.020;2023-08-06T08:28:17;2.70;;;1.00;;
28007;SDS011;15333;50.010;20.020;2023-08-06T08:31:18;3.28;;;0.80;;
28007;SDS011;15333;50.010;20.020;2023-08-06T08:34:19;1.45;;;0.70;;
28007;SDS011;15333;50.010;20.020;2023-08-06T08:37:20;1.73;;;0.85;;
28007;SDS011;15333;50.010;20.020;2023-08-06T08:40:21;3.17;;;0.90;;
28007;SDS011;15333;50.010;20.020;2023-08-06T08:43:27;4.90;;;2.00;;
28007;SDS011;15333;50.010;20.020;2023-08-06T08:46:29;4.20;;;1.45;;
28007;SDS011;15333;50.010;20.020;2023-08-06T08:49:32;1.10;;;1.00;;
28007;SDS011;15333;50.010;20.020;2023-08-06T08:52:36;2.50;;;1.25;;
28007;SDS011;15333;50.010;20.020;2023-08-06T08:55:38;1.27;;;0.65;;
28007;SDS011;15333;50.010;20.020;2023-08-06T08:58:40;1.83;;;0.93;;
28007;SDS011;15333;50.010;20.020;2023-08-06T09:01:41;0.68;;;0.60;;
28007;SDS011;15333;50.010;20.020;2023-08-06T09:04:43;0.75;;;0.60;;
28007;SDS011;15333;50.010;20.020;2023-08-06T09:07:46;2.45;;;1.23;;
28007;SDS011;15333;50.010;20.020;2023-08-06T09:10:49;1.13;;;0.52;;
28007;SDS011;15333;50.010;20.020;2023-08-06T09:13:52;2.47;;;0.80;;
28007;SDS011;15333;50.010;20.020;2023-08-06T09:16:54;1.17;;;0.73;;
28007;SDS011;15333;50.010;20.020;2023-08-06T09:19:55;3.65;;;0.82;;
28007;SDS011;15333;50.010;20.020;2023-08-06T09:22:56;0.98;;;0.80;;
28007;SDS011;15333;50.010;20.020;2023-08-06T09:25:57;1.35;;;0.77;;
28007;SDS011;15333;50.010;20.020;2023-08-06T09:28:59;2.80;;;1.73;;
28007;SDS011;15333;50.010;20.020;2023-08-06T09:32:00;0.50;;;0.50;;
28007;SDS011;15333;50.010;20.020;2023-08-06T09:35:01;1.20;;;0.90;;
28007;SDS011;15333;50.010;20.020;2023-08-06T09:38:09;1.10;;;0.70;;
28007;SDS011;15333;50.010;20.020;2023-08-06T09:41:10;0.80;;;0.80;;
28007;SDS011;15333;50.010;20.020;2023-08-06T09:44:32;2.75;;;1.70;;
28007;SDS011;15333;50.010;20.020;2023-08-06T09:47:34;0.68;;;0.63;;
28007;SDS011;15333;50.010;20.020;2023-08-06T09:50:37;2.55;;;0.90;;
28007;SDS011;15333;50.010;20.020;2023-08-06T09:53:40;2.58;;;1.02;;
28007;SDS011;15333;50.010;20.020;2023-08-06T09:56:42;1.70;;;0.88;;
28007;SDS011;15333;50.010;20.020;2023-08-06T09:59:43;1.30;;;1.13;;
28007;SDS011;15333;50.010;20.020;2023-08-06T10:02:46;1.92;;;1.70;;
28007;SDS011;15333;50.010;20.020;2023-08-06T10:05:47;2.05;;;1.10;;
28007;SDS011;15333;50.010;20.020;2023-08-06T10:08:48;2.42;;;1.40;;
28007;SDS011;15333;50.010;20.020;2023-08-06T10:11:50;2.20;;;2.00;;
28007;SDS011;15333;50.010;20.020;2023-08-06T10:14:54;3.88;;;2.00;;
28007;SDS011;15333;50.010;20.020;2023-08-06T10:17:59;4.10;;;1.50;;
28007;SDS011;15333;50.010;20.020;2023-08-06T10:21:02;1.85;;;1.60;;
28007;SDS011;15333;50.010;20.020;2023-08-06T10:24:03;3.35;;;1.63;;
28007;SDS011;15333;50.010;20.020;2023-08-06T10:27:11;4.68;;;1.83;;
28007;SDS011;15333;50.010;20.020;2023-08-06T10:30:25;1.77;;;1.48;;
28007;SDS011;15333;50.010;20.020;2023-08-06T10:33:44;3.63;;;1.63;;
28007;SDS011;15333;50.010;20.020;2023-08-06T10:36:47;2.10;;;1.90;;
28007;SDS011;15333;50.010;20.020;2023-08-06T10:39:49;2.20;;;1.92;;
28007;SDS011;15333;50.010;20.020;2023-08-06T10:42:51;2.45;;;2.20;;
28007;SDS011;15333;50.010;20.020;2023-08-06T10:45:52;2.10;;;1.90;;
28007;SDS011;15333;50.010;20.020;2023-08-06T10:48:53;3.30;;;2.03;;
28007;SDS011;15333;50.010;20.020;2023-08-06T10:51:54;2.20;;;1.77;;
28007;SDS011;15333;50.010;20.020;2023-08-06T10:54:55;3.03;;;2.40;;
28007;SDS011;15333;50.010;20.020;2023-08-06T10:57:56;2.03;;;1.80;;
28007;SDS011;15333;50.010;20.020;2023-08-06T11:00:58;4.45;;;2.20;;
28007;SDS011;15333;50.010;20.020;2023-08-06T11:04:01;2.95;;;1.75;;
28007;SDS011;15333;50.010;20.020;2023-08-06T11:07:03;3.78;;;1.70;;
28007;SDS011;15333;50.010;20.020;2023-08-06T11:10:04;1.88;;;1.58;;
28007;SDS011;15333;50.010;20.020;2023-08-06T11:13:07;1.50;;;1.40;;
28007;SDS011;15333;50.010;20.020;2023-08-06T11:16:08;2.03;;;1.83;;
28007;SDS011;15333;50.010;20.020;2023-08-06T11:19:10;1.40;;;1.30;;
28007;SDS011;15333;50.010;20.020;2023-08-06T11:22:11;1.63;;;1.50;;
28007;SDS011;15333;50.010;20.020;2023-08-06T11:25:12;1.65;;;1.45;;
28007;SDS011;15333;50.010;20.020;2023-08-06T11:28:13;2.83;;;2.47;;
28007;SDS011;15333;50.010;20.020;2023-08-06T11:31:23;3.08;;;2.08;;
28007;SDS011;15333;50.010;20.020;2023-08-06T11:34:24;7.00;;;2.95;;
28007;SDS011;15333;50.010;20.020;2023-08-06T11:37:25;4.25;;;2.97;;
28007;SDS011;15333;50.010;20.020;2023-08-06T11:40:27;3.00;;;1.98;;
28007;SDS011;15333;50.010;20.020;2023-08-06T11:43:29;3.97;;;3.15;;
28007;SDS011;15333;50.010;20.020;2023-08-06T11:46:49;2.40;;;2.10;;
28007;SDS011;15333;50.010;20.020;2023-08-06T11:49:52;3.38;;;2.58;;
28007;SDS011;15333;50.010;20.020;2023-08-06T11:52:57;3.92;;;2.65;;
28007;SDS011;15333;50.010;20.020;2023-08-06T11:56:00;2.38;;;1.77;;
28007;SDS011;15333;50.010;20.020;2023-08-06T11:59:02;4.13;;;1.73;;
28007;SDS011;15333;50.010;20.020;2023-08-06T12:02:03;3.58;;;1.25;;
28007;SDS011;15333;50.010;20.020;2023-08-06T12:08:12;2.75;;;1.20;;
28007;SDS011;15333;50.010;20.020;2023-08-06T12:11:14;2.95;;;1.00;;
28007;SDS011;15333;50.010;20.020;2023-08-06T12:14:15;1.52;;;0.88;;
28007;SDS011;15333;50.010;20.020;2023-08-06T12:17:16;1.67;;;1.08;;
28007;SDS011;15333;50.010;20.020;2023-08-06T12:20:17;1.67;;;1.10;;
28007;SDS011;15333;50.010;20.020;2023-08-06T12:23:19;3.20;;;1.33;;
28007;SDS011;15333;50.010;20.020;2023-08-06T12:26:19;1.60;;;0.73;;
28007;SDS011;15333;50.010;20.020;2023-08-06T12:29:20;2.50;;;1.00;;
28007;SDS011;15333;50.010;20.020;2023-08-06T12:32:21;1.52;;;1.00;;
28007;SDS011;15333;50.010;20.020;2023-08-06T12:35:22;1.15;;;1.05;;
28007;SDS011;15333;50.010;20.020;2023-08-06T12:38:24;1.10;;;0.80;;
28007;SDS011;15333;50.010;20.020;2023-08-06T12:41:25;1.95;;;1.00;;
28007;SDS011;15333;50.010;20.020;2023-08-06T12:44:26;1.10;;;0.80;;
28007;SDS011;15333;50.010;20.020;2023-08-06T12:47:28;2.03;;;1.58;;
28007;SDS011;15333;50.010;20.020;2023-08-06T12:50:29;1.10;;;0.90;;
28007;SDS011;15333;50.010;20.020;2023-08-06T12:53:30;1.58;;;1.00;;
28007;SDS011;15333;50.010;20.020;2023-08-06T12:56:31;1.38;;;1.00;;
28007;SDS011;15333;50.010;20.020;2023-08-06T12:59:32;1.38;;;0.93;;
28007;SDS011;15333;50.010;20.020;2023-08-06T13:02:42;1.20;;;1.10;;
28007;SDS011;15333;50.010;20.020;2023-08-06T13:05:43;1.00;;;0.90;;
28007;SDS011;15333;50.010;20.020;2023-08-06T13:08:45;1.10;;;0.82;;
28007;SDS011;15333;50.010;20.020;2023-08-06T13:11:46;1.85;;;0.93;;
28007;SDS011;15333;50.010;20.020;2023-08-06T13:14:50;2.33;;;1.10;;
28007;SDS011;15333;50.010;20.020;2023-08-06T13:17:53;0.68;;;0.60;;
28007;SDS011;15333;50.010;20.020;2023-08-06T13:20:54;1.20;;;0.90;;
28007;SDS011;15333;50.010;20.020;2023-08-06T13:23:55;2.42;;;1.75;;
28007;SDS011;15333;50.010;20.020;2023-08-06T13:26:56;4.35;;;1.17;;
28007;SDS011;15333;50.010;20.020;2023-08-06T13:29:58;1.45;;;1.20;;
28007;SDS011;15333;50.010;20.020;2023-08-06T13:32:58;1.70;;;1.20;;
28007;SDS011;15333;50.010;20.020;2023-08-06T13:36:00;2.00;;;1.17;;
28007;SDS011;15333;50.010;20.020;2023-08-06T13:39:00;1.85;;;1.50;;
28007;SDS011;15333;50.010;20.020;2023-08-06T13:42:02;1.88;;;1.50;;
28007;SDS011;15333;50.010;20.020;2023-08-06T13:45:03;2.17;;;1.85;;
28007;SDS011;15333;50.010;20.020;2023-08-06T13:48:05;1.75;;;1.30;;
28007;SDS011;15333;50.010;20.020;2023-08-06T13:51:06;2.92;;;1.20;;
28007;SDS011;15333;50.010;20.020;2023-08-06T13:54:07;1.83;;;1.30;;
28007;SDS011;15333;50.010;20.020;2023-08-06T13:57:08;2.13;;;1.40;;
28007;SDS011;15333;50.010;20.020;2023-08-06T14:00:09;2.35;;;1.30;;
28007;SDS011;15333;50.010;20.020;2023-08-06T14:03:14;1.77;;;1.30;;
28007;SDS011;15333;50.010;20.020;2023-08-06T14:06:15;1.35;;;1.20;;
28007;SDS011;15333;50.010;20.020;2023-08-06T14:09:16;3.45;;;1.40;;
28007;SDS011;15333;50.010;20.020;2023-08-06T14:12:19;3.53;;;1.60;;
28007;SDS011;15333;50.010;20.020;2023-08-06T14:15:20;2.88;;;1.52;;
28007;SDS011;15333;50.010;20.020;2023-08-06T14:18:23;3.17;;;2.58;;
28007;SDS011;15333;50.010;20.020;2023-08-06T14:21:24;2.08;;;1.60;;
28007;SDS011;15333;50.010;20.020;2023-08-06T14:24:28;2.63;;;1.58;;
28007;SDS011;15333;50.010;20.020;2023-08-06T14:27:29;2.30;;;1.77;;
28007;SDS011;15333;50.010;20.020;2023-08-06T14:30:30;2.85;;;1.85;;
28007;SDS011;15333;50.010;20.020;2023-08-06T14:33:31;1.77;;;1.67;;
28007;SDS011;15333;50.010;20.020;2023-08-06T14:36:32;2.03;;;1.83;;
28007;SDS011;15333;50.010;20.020;2023-08-06T14:39:33;3.67;;;2.80;;
28007;SDS011;15333;50.010;20.020;2023-08-06T14:42:34;3.80;;;2.88;;
28007;SDS011;15333;50.010;20.020;2023-08-06T14:45:39;2.65;;;1.90;;
28007;SDS011;15333;50.010;20.020;2023-08-06T14:48:40;3.15;;;2.17;;
28007;SDS011;15333;50.010;20.020;2023-08-06T14:51:42;4.78;;;2.35;;
28007;SDS011;15333;50.010;20.020;2023-08-06T14:54:43;2.42;;;1.77;;
28007;SDS011;15333;50.010;20.020;2023-08-06T14:57:44;9.10;;;1.58;;
28007;SDS011;15333;50.010;20.020;2023-08-06T15:00:45;2.53;;;1.80;;
28007;SDS011;15333;50.010;20.020;2023-08-06T15:03:46;2.92;;;1.98;;
28007;SDS011;15333;50.010;20.020;2023-08-06T15:06:47;1.58;;;1.20;;
28007;SDS011;15333;50.010;20.020;2023-08-06T15:09:48;2.90;;;1.30;;
28007;SDS011;15333;50.010;20.020;2023-08-06T15:12:49;1.55;;;1.23;;
28007;SDS011;15333;50.010;20.020;2023-08-06T15:15:50;1.90;;;1.08;;
28007;SDS011;15333;50.010;20.020;2023-08-06T15:18:52;1.55;;;1.00;;
28007;SDS011;15333;50.010;20.020;2023-08-06T15:21:53;1.30;;;1.20;;
28007;SDS011;15333;50.010;20.020;2023-08-06T15:24:54;1.65;;;1.30;;
28007;SDS011;15333;50.010;20.020;2023-08-06T15:27:55;1.98;;;1.33;;
28007;SDS011;15333;50.010;20.020;2023-08-06T15:30:56;2.20;;;1.45;;
28007;SDS011;15333;50.010;20.020;2023-08-06T15:33:57;1.40;;;1.15;;
28007;SDS011;15333;50.010;20.020;2023-08-06T15:36:58;1.00;;;1.00;;
28007;SDS011;15333;50.010;20.020;2023-08-06T15:39:59;1.20;;;1.02;;
28007;SDS011;15333;50.010;20.020;2023-08-06T15:43:00;2.08;;;1.30;;
28007;SDS011;15333;50.010;20.020;2023-08-06T15:46:00;2.15;;;1.00;;
28007;SDS011;15333;50.010;20.020;2023-08-06T15:49:02;2.05;;;1.08;;
28007;SDS011;15333;50.010;20.020;2023-08-06T15:52:03;1.67;;;1.25;;
28007;SDS011;15333;50.010;20.020;2023-08-06T15:55:04;1.27;;;1.10;;
28007;SDS011;15333;50.010;20.020;2023-08-06T15:58:06;2.30;;;1.40;;
28007;SDS011;15333;50.010;20.020;2023-08-06T16:01:07;3.33;;;1.38;;
28007;SDS011;15333;50.010;20.020;2023-08-06T16:04:07;3.30;;;1.40;;
28007;SDS011;15333;50.010;20.020;2023-08-06T16:07:08;2.65;;;1.55;;
28007;SDS011;15333;50.010;20.020;2023-08-06T16:10:09;2.75;;;1.60;;
28007;SDS011;15333;50.010;20.020;2023-08-06T16:13:11;4.45;;;1.70;;
28007;SDS011;15333;50.010;20.020;2023-08-06T16:16:12;2.30;;;1.42;;
28007;SDS011;15333;50.010;20.020;2023-08-06T16:19:13;1.95;;;1.38;;
28007;SDS011;15333;50.010;20.020;2023-08-06T16:22:13;6.32;;;1.75;;
28007;SDS011;15333;50.010;20.020;2023-08-06T16:25:15;3.63;;;1.67;;
28007;SDS011;15333;50.010;20.020;2023-08-06T16:28:16;2.60;;;1.45;;
28007;SDS011;15333;50.010;20.020;2023-08-06T16:31:18;5.47;;;1.88;;
28007;SDS011;15333;50.010;20.020;2023-08-06T16:34:19;4.18;;;2.10;;
28007;SDS011;15333;50.010;20.020;2023-08-06T16:37:20;4.35;;;1.73;;
28007;SDS011;15333;50.010;20.020;2023-08-06T16:40:21;3.33;;;1.73;;
28007;SDS011;15333;50.010;20.020;2023-08-06T16:43:22;2.42;;;1.80;;
28007;SDS011;15333;50.010;20.020;2023-08-06T16:46:23;2.53;;;2.33;;
28007;SDS011;15333;50.010;20.020;2023-08-06T16:49:25;2.95;;;2.33;;
28007;SDS011;15333;50.010;20.020;2023-08-06T16:52:25;4.75;;;2.53;;
28007;SDS011;15333;50.010;20.020;2023-08-06T16:55:29;6.22;;;2.35;;
28007;SDS011;15333;50.010;20.020;2023-08-06T16:58:38;6.53;;;2.65;;
28007;SDS011;15333;50.010;20.020;2023-08-06T17:01:40;4.38;;;2.30;;
28007;SDS011;15333;50.010;20.020;2023-08-06T17:04:43;4.22;;;1.83;;
28007;SDS011;15333;50.010;20.020;2023-08-06T17:07:45;4.15;;;1.73;;
28007;SDS011;15333;50.010;20.020;2023-08-06T17:10:49;2.00;;;1.75;;
28007;SDS011;15333;50.010;20.020;2023-08-06T17:13:50;3.08;;;1.80;;
28007;SDS011;15333;50.010;20.020;2023-08-06T17:16:50;1.63;;;1.45;;
28007;SDS011;15333;50.010;20.020;2023-08-06T17:19:51;4.35;;;1.75;;
28007;SDS011;15333;50.010;20.020;2023-08-06T17:22:52;2.67;;;1.50;;
28007;SDS011;15333;50.010;20.020;2023-08-06T17:25:53;3.85;;;1.48;;
28007;SDS011;15333;50.010;20.020;2023-08-06T17:28:57;3.72;;;1.80;;
28007;SDS011;15333;50.010;20.020;2023-08-06T17:31:58;3.28;;;1.40;;
28007;SDS011;15333;50.010;20.020;2023-08-06T17:34:58;1.48;;;1.38;;
28007;SDS011;15333;50.010;20.020;2023-08-06T17:37:59;2.85;;;1.58;;
28007;SDS011;15333;50.010;20.020;2023-08-06T17:41:01;2.42;;;1.40;;
28007;SDS011;15333;50.010;20.020;2023-08-06T17:44:05;1.90;;;1.67;;
28007;SDS011;15333;50.010;20.020;2023-08-06T17:47:06;2.20;;;1.40;;
28007;SDS011;15333;50.010;20.020;2023-08-06T17:50:07;2.63;;;2.10;;
28007;SDS011;15333;50.010;20.020;2023-08-06T17:53:08;2.08;;;1.63;;